UKHH/HRK METAR and TAF weather

Enter ICAO airport designator
Station Type Date Time Source
UKHH METAR 2019/02/18 04:00 UTC NOAA

UKHH 180400Z 33006MPS CAVOK M01/M06 Q1013 R25/0///72 NOSIG


Station Type Date Time Source
UKHH Decoded METAR 2019/02/18 04:00 UTC NOAA

Kharkiv, Ukraine (UKHH) 49-58N 036-08E 155M
Feb 17, 2019 - 11:00 PM EST / 2019.02.18 0400 UTC
Wind: from the NNW (330 degrees) at 13 MPH (12 KT):0
Visibility: greater than 7 mile(s):0
Temperature: 30 F (-1 C)
Windchill: 19 F (-7 C):1
Dew Point: 21 F (-6 C)
Relative Humidity: 68%
Pressure (altimeter): 29.91 in. Hg (1013 hPa)
ob: UKHH 180400Z 33006MPS CAVOK M01/M06 Q1013 R25/0///72 NOSIG
cycle: 4

Station Type Date Time Source
UKHH TAF 2019/02/17 20:09 UTC NOAA

TAF
AMD TAF
AMD UKHH 172007Z 1720/1818 33006G11MPS 9999 BKN010 TX02/1720Z TNM06/1818Z
TEMPO 1720/1721 33009G16MPS SCT015CB
TEMPO 1721/1724 35008G15MPS BKN007
TEMPO 1809/1818 3100 -SHSN BKN007 BKN015CB


Example: see airport list